Time;durP1;ratioP1;P1;durP2;ratioP2;P2;SDS_P1;SDS_P2;PMS_P1;PMS_P2;Temp;Humidity;BMP_temperature;BMP_pressure;BME280_temperature;BME280_humidity;BME280_pressure;Samples;Min_cycle;Max_cycle;Signal;HPM_P1;HPM_P2
2024/02/02 00:04:59;;;;;;;8.80;2.80;;;;;;;3.30;83.31;99623.07;226581;1268;22579;-85
2024/02/02 00:10:02;;;;;;;10.60;3.30;;;;;;;3.31;83.25;99622.98;226377;1274;22551;-86
2024/02/02 00:15:04;;;;;;;8.30;3.30;;;;;;;3.34;83.10;99621.05;226535;1272;22539;-84
2024/02/02 00:20:08;;;;;;;12.00;3.00;;;;;;;3.33;82.99;99624.61;226585;1271;22568;-83
2024/02/02 00:25:12;;;;;;;13.30;2.80;;;;;;;3.31;83.11;99625.95;226414;1274;22675;-83
2024/02/02 00:30:14;;;;;;;12.30;3.30;;;;;;;3.32;82.96;99635.80;226346;1271;24210;-85
2024/02/02 00:35:16;;;;;;;11.40;3.60;;;;;;;3.34;83.09;99631.16;226315;1274;25375;-85
2024/02/02 00:40:19;;;;;;;13.00;3.30;;;;;;;3.34;82.95;99631.98;226517;1274;22536;-86
2024/02/02 00:45:24;;;;;;;10.90;3.00;;;;;;;3.36;82.88;99637.46;226450;1274;22564;-84
2024/02/02 00:50:26;;;;;;;10.40;2.60;;;;;;;3.38;82.96;99635.73;226609;1270;22567;-85
2024/02/02 00:55:28;;;;;;;10.40;2.80;;;;;;;3.39;83.04;99640.17;226443;1274;22575;-85
2024/02/02 01:00:33;;;;;;;13.90;2.70;;;;;;;3.37;82.83;99639.44;226308;1274;22546;-85
2024/02/02 01:05:35;;;;;;;11.80;3.00;;;;;;;3.35;82.84;99636.27;226532;1272;22570;-86
2024/02/02 01:10:37;;;;;;;9.10;3.00;;;;;;;3.33;82.75;99639.02;226586;1274;22530;-84
2024/02/02 01:15:40;;;;;;;10.00;2.60;;;;;;;3.31;82.51;99638.64;226601;1271;22577;-84
2024/02/02 01:20:42;;;;;;;9.80;3.00;;;;;;;3.27;82.51;99631.75;226537;1274;22536;-85
2024/02/02 01:25:44;;;;;;;9.20;2.60;;;;;;;3.21;82.56;99634.98;226414;1269;23006;-85
2024/02/02 01:30:47;;;;;;;10.60;2.60;;;;;;;3.17;82.65;99641.84;226613;1271;22557;-85
2024/02/02 01:35:49;;;;;;;13.10;2.90;;;;;;;3.11;82.41;99628.20;226375;1273;22546;-84
2024/02/02 01:40:51;;;;;;;14.50;3.50;;;;;;;3.03;82.52;99630.10;226528;1271;22699;-85
2024/02/02 01:45:53;;;;;;;8.60;2.90;;;;;;;2.94;82.57;99625.72;226688;1271;25352;-85
2024/02/02 01:50:54;;;;;;;9.20;2.60;;;;;;;2.85;82.62;99631.80;226448;1274;22557;-84
2024/02/02 01:55:57;;;;;;;7.70;3.10;;;;;;;2.79;82.74;99641.02;226367;1274;22562;-84
2024/02/02 02:01:00;;;;;;;8.50;2.80;;;;;;;2.73;82.83;99642.67;226311;1274;22537;-84
2024/02/02 02:06:03;;;;;;;8.20;2.80;;;;;;;2.69;82.84;99641.61;226578;1271;22660;-83
2024/02/02 02:11:07;;;;;;;14.70;4.10;;;;;;;2.67;82.73;99652.59;226320;1274;24177;-85
2024/02/02 02:16:09;;;;;;;8.80;2.90;;;;;;;2.61;82.87;99651.92;226628;1274;24441;-84
2024/02/02 02:21:25;;;;;;;10.50;3.40;;;;;;;2.54;82.90;99653.56;226282;1274;22532;-85
2024/02/02 02:26:28;;;;;;;14.70;3.10;;;;;;;2.44;82.98;99655.99;226474;1274;22581;-85
2024/02/02 02:31:31;;;;;;;11.40;2.90;;;;;;;2.39;83.09;99653.27;226493;1272;22559;-86
2024/02/02 02:36:33;;;;;;;8.50;3.10;;;;;;;2.37;83.21;99657.05;226651;1271;23686;-84
2024/02/02 02:41:35;;;;;;;9.80;3.40;;;;;;;2.40;83.27;99662.58;226598;1272;22527;-85
2024/02/02 02:46:37;;;;;;;12.80;3.30;;;;;;;2.44;83.34;99666.45;226556;1253;25349;-83
2024/02/02 02:51:40;;;;;;;12.60;3.20;;;;;;;2.49;83.40;99670.48;226573;1274;22553;-83
2024/02/02 02:56:41;;;;;;;10.90;3.60;;;;;;;2.54;83.36;99664.88;226300;1274;22536;-85
2024/02/02 03:01:44;;;;;;;8.30;3.00;;;;;;;2.58;83.44;99666.81;226554;1274;22545;-84
2024/02/02 03:06:46;;;;;;;10.30;3.10;;;;;;;2.61;83.52;99671.92;226499;1273;24205;-86
2024/02/02 03:11:48;;;;;;;10.70;2.90;;;;;;;2.66;83.51;99680.27;226593;1273;22547;-84
2024/02/02 03:16:51;;;;;;;9.80;2.80;;;;;;;2.70;83.40;99681.84;226389;1274;22538;-85
2024/02/02 03:21:54;;;;;;;9.80;2.60;;;;;;;2.75;83.50;99670.38;226438;1274;22537;-84
2024/02/02 03:26:56;;;;;;;9.90;3.00;;;;;;;2.77;83.39;99677.50;226545;1271;22585;-83
2024/02/02 03:31:59;;;;;;;8.10;2.60;;;;;;;2.78;83.30;99677.62;226622;1263;22553;-85
2024/02/02 03:37:02;;;;;;;8.80;3.10;;;;;;;2.77;83.34;99675.91;226673;1265;22583;-84
2024/02/02 03:42:04;;;;;;;10.20;2.70;;;;;;;2.78;83.39;99682.52;226337;1274;22653;-85
2024/02/02 03:47:06;;;;;;;10.30;3.10;;;;;;;2.75;83.47;99680.80;226525;1274;24256;-85
2024/02/02 03:52:08;;;;;;;12.40;3.40;;;;;;;2.69;83.47;99688.88;226538;1274;24214;-85
2024/02/02 03:57:11;;;;;;;8.00;2.70;;;;;;;2.63;83.58;99688.31;226407;1274;24228;-85
2024/02/02 04:02:13;;;;;;;8.70;2.50;;;;;;;2.58;83.76;99694.95;226643;1272;23041;-81
2024/02/02 04:07:15;;;;;;;10.60;2.90;;;;;;;2.57;84.02;99698.55;226522;1272;22583;-86
2024/02/02 04:12:17;;;;;;;11.60;3.10;;;;;;;2.59;84.20;99696.83;226517;1274;23320;-85
2024/02/02 04:17:20;;;;;;;9.30;2.90;;;;;;;2.63;84.28;99703.47;226571;1271;22540;-85
2024/02/02 04:22:23;;;;;;;10.20;3.50;;;;;;;2.68;84.26;99713.15;226557;1271;22547;-86
2024/02/02 04:27:25;;;;;;;13.70;3.10;;;;;;;2.73;84.36;99707.39;226561;1274;22537;-84
2024/02/02 04:32:27;;;;;;;8.20;3.00;;;;;;;2.74;84.50;99699.45;226656;1272;24378;-85
2024/02/02 04:37:29;;;;;;;13.90;4.10;;;;;;;2.75;84.52;99705.45;226653;1271;22556;-85
2024/02/02 04:42:31;;;;;;;9.10;3.60;;;;;;;2.78;84.75;99706.48;226559;1273;22562;-84
2024/02/02 04:47:33;;;;;;;14.00;4.10;;;;;;;2.79;84.85;99706.38;226538;1274;22552;-86
2024/02/02 04:52:35;;;;;;;12.20;3.50;;;;;;;2.81;84.74;99717.58;226456;1273;22634;-85
2024/02/02 04:57:38;;;;;;;15.40;4.10;;;;;;;2.82;84.90;99715.04;226518;1274;22547;-85
2024/02/02 05:02:40;;;;;;;8.80;3.10;;;;;;;2.83;84.98;99714.77;226376;1274;25994;-85
2024/02/02 05:07:42;;;;;;;9.10;3.70;;;;;;;2.83;84.80;99723.86;226548;1273;25867;-85
2024/02/02 05:12:44;;;;;;;11.50;3.30;;;;;;;2.79;85.00;99728.00;226667;1272;22548;-86
2024/02/02 05:17:46;;;;;;;13.40;4.10;;;;;;;2.73;84.95;99734.83;226533;1273;22535;-85
2024/02/02 05:22:48;;;;;;;12.10;3.90;;;;;;;2.73;85.05;99742.19;226617;1272;23625;-85
2024/02/02 05:27:51;;;;;;;12.00;3.40;;;;;;;2.74;85.15;99747.31;226703;1274;25900;-85
2024/02/02 05:32:53;;;;;;;10.40;3.90;;;;;;;2.78;85.34;99748.07;226594;1274;24241;-84
2024/02/02 05:37:55;;;;;;;8.80;3.90;;;;;;;2.79;85.28;99752.98;226568;1274;22547;-83
2024/02/02 05:42:57;;;;;;;12.60;4.30;;;;;;;2.81;85.17;99756.38;226571;1274;22644;-84
2024/02/02 05:47:59;;;;;;;13.30;3.70;;;;;;;2.81;85.23;99754.41;226555;1273;22793;-83
2024/02/02 05:53:01;;;;;;;10.00;4.30;;;;;;;2.81;85.19;99750.40;226378;1274;22558;-83
2024/02/02 05:58:03;;;;;;;12.10;3.80;;;;;;;2.84;85.22;99748.10;226545;1269;22569;-85
2024/02/02 06:03:05;;;;;;;8.30;3.30;;;;;;;2.86;84.97;99741.71;226657;1274;22547;-85
2024/02/02 06:08:07;;;;;;;19.00;4.80;;;;;;;2.88;84.91;99741.73;226534;1274;22570;-86
2024/02/02 06:13:10;;;;;;;11.40;3.40;;;;;;;2.86;84.75;99742.92;226405;1274;24231;-84
2024/02/02 06:18:19;;;;;;;14.30;3.50;;;;;;;2.86;84.55;99750.92;226388;1256;22544;-84
2024/02/02 06:23:22;;;;;;;14.40;3.30;;;;;;;2.90;84.34;99760.93;226496;1274;22544;-84
2024/02/02 06:28:24;;;;;;;18.10;3.30;;;;;;;2.93;84.14;99764.17;226477;1274;22548;-84
2024/02/02 06:33:26;;;;;;;16.00;3.20;;;;;;;2.93;83.63;99763.10;226580;1274;25094;-84
2024/02/02 06:38:29;;;;;;;12.10;3.30;;;;;;;2.89;83.30;99770.52;226476;1274;22556;-84
2024/02/02 06:43:32;;;;;;;15.80;3.60;;;;;;;2.84;83.21;99768.45;226482;1272;22550;-86
2024/02/02 06:48:35;;;;;;;10.70;2.70;;;;;;;2.79;83.04;99781.02;226343;1258;23026;-86
2024/02/02 06:53:37;;;;;;;13.50;3.90;;;;;;;2.75;83.08;99785.19;226242;1251;23159;-85
2024/02/02 06:58:43;;;;;;;10.70;2.70;;;;;;;2.71;83.22;99786.48;226101;1254;24527;-82
2024/02/02 07:03:45;;;;;;;16.50;3.80;;;;;;;2.66;83.11;99784.33;226004;1257;22558;-83
2024/02/02 07:08:48;;;;;;;14.60;3.70;;;;;;;2.62;83.12;99783.52;226266;1253;24250;-79
2024/02/02 07:13:51;;;;;;;14.80;3.40;;;;;;;2.59;83.05;99786.38;226305;1267;24433;-82
2024/02/02 07:18:53;;;;;;;16.60;4.30;;;;;;;2.60;83.26;99790.13;226033;1274;22589;-82
2024/02/02 07:23:57;;;;;;;15.80;3.10;;;;;;;2.69;83.45;99785.98;226169;1270;22548;-80
2024/02/02 07:29:07;;;;;;;11.60;3.40;;;;;;;2.78;83.37;99784.05;226398;1271;22572;-79
2024/02/02 07:34:42;;;;;;;8.80;3.60;;;;;;;2.92;83.18;99786.52;226425;1273;22560;-79
2024/02/02 07:39:44;;;;;;;16.10;4.10;;;;;;;3.09;83.17;99785.73;226163;1270;22630;-77
2024/02/02 07:44:46;;;;;;;14.60;3.50;;;;;;;3.22;83.20;99788.21;226180;1270;23658;-80
2024/02/02 07:49:48;;;;;;;13.50;3.20;;;;;;;3.33;83.11;99794.01;226161;1274;22551;-81
2024/02/02 07:54:50;;;;;;;14.10;4.30;;;;;;;3.42;83.03;99806.04;226258;1273;22522;-81
2024/02/02 07:59:52;;;;;;;15.30;4.70;;;;;;;3.47;82.98;99806.88;226397;1273;22551;-81
2024/02/02 08:04:54;;;;;;;16.70;4.60;;;;;;;3.56;83.02;99804.41;226392;1267;22596;-81
2024/02/02 08:09:56;;;;;;;16.20;5.30;;;;;;;3.73;82.84;99805.20;226452;1267;22541;-80
2024/02/02 08:14:59;;;;;;;20.50;5.00;;;;;;;3.87;82.81;99810.13;226510;1267;22559;-81
2024/02/02 08:20:01;;;;;;;22.00;3.70;;;;;;;3.98;82.31;99801.14;226457;1271;22612;-79
2024/02/02 08:25:03;;;;;;;14.30;4.10;;;;;;;4.02;82.17;99807.79;226541;1273;22665;-80
2024/02/02 08:34:58;;;;;;;14.90;3.30;;;;;;;4.33;82.01;99810.52;219330;1304;545345;-82
2024/02/02 08:40:01;;;;;;;14.50;3.80;;;;;;;4.41;81.51;99815.31;224226;1291;26293;-81
2024/02/02 08:45:11;;;;;;;13.80;3.60;;;;;;;4.50;81.34;99822.20;223445;1280;194898;-82
2024/02/02 08:50:14;;;;;;;14.70;3.80;;;;;;;4.58;81.34;99819.25;225357;1274;22542;-80
2024/02/02 08:55:26;;;;;;;15.30;3.70;;;;;;;4.69;81.01;99813.54;225282;1276;22566;-81
2024/02/02 09:00:39;;;;;;;14.80;4.10;;;;;;;4.75;81.05;99810.71;225322;1276;25418;-81
2024/02/02 09:05:49;;;;;;;13.30;3.80;;;;;;;4.77;80.37;99816.17;224919;1282;22634;-81
2024/02/02 09:10:51;;;;;;;;;;;;;;;4.80;80.19;99822.34;224977;1272;22904;-75
2024/02/02 09:15:53;;;;;;;12.30;4.20;;;;;;;4.87;80.20;99824.10;225256;1275;22575;-82
2024/02/02 09:20:56;;;;;;;17.40;4.70;;;;;;;4.95;79.95;99826.88;225496;1272;22821;-81
2024/02/02 09:26:08;;;;;;;12.70;3.80;;;;;;;5.05;79.66;99817.89;225446;1276;22554;-81
2024/02/02 09:31:20;;;;;;;10.90;3.80;;;;;;;5.13;79.67;99819.60;225257;1277;22767;-82
2024/02/02 09:36:28;;;;;;;16.30;3.60;;;;;;;5.35;79.25;99817.91;225708;1279;23117;-81
2024/02/02 09:41:51;;;;;;;13.20;4.10;;;;;;;5.63;79.06;99812.09;225535;1276;22570;-80
2024/02/02 09:47:07;;;;;;;11.20;3.70;;;;;;;5.86;78.38;99811.66;225505;1273;22685;-80
2024/02/02 09:52:50;;;;;;;11.40;4.10;;;;;;;5.94;77.86;99814.46;225380;1269;22553;-78
2024/02/02 09:58:15;;;;;;;9.60;3.20;;;;;;;5.94;77.09;99806.23;225546;1273;22614;-75
2024/02/02 10:03:36;;;;;;;11.70;3.20;;;;;;;6.01;76.94;99804.58;225590;1276;22590;-82
2024/02/02 10:09:13;;;;;;;17.10;3.80;;;;;;;5.93;76.53;99806.20;225606;1276;22562;-82
2024/02/02 10:14:26;;;;;;;11.30;3.50;;;;;;;5.83;76.27;99804.17;225724;1279;22580;-81
2024/02/02 10:19:42;;;;;;;8.50;2.90;;;;;;;5.80;76.49;99794.70;225686;1279;22915;-80
2024/02/02 10:25:20;;;;;;;11.70;3.70;;;;;;;5.91;76.69;99789.73;225746;1279;22577;-81
2024/02/02 10:30:36;;;;;;;10.30;3.50;;;;;;;6.02;76.68;99783.64;225842;1276;22602;-82
2024/02/02 10:35:56;;;;;;;10.20;3.30;;;;;;;6.28;77.05;99770.85;225666;1279;22549;-80
2024/02/02 10:41:08;;;;;;;7.80;3.20;;;;;;;6.50;76.40;99763.54;225779;1273;25353;-77
2024/02/02 10:46:34;;;;;;;12.90;4.20;;;;;;;6.51;75.88;99758.70;225637;1273;22614;-77
2024/02/02 10:52:12;;;;;;;13.20;4.60;;;;;;;6.63;76.38;99749.73;225519;1281;22733;-76
2024/02/02 10:57:33;;;;;;;11.40;3.90;;;;;;;6.80;76.07;99748.38;225450;1257;22541;-77
2024/02/02 11:02:42;;;;;;;12.10;4.70;;;;;;;6.91;74.92;99732.65;225530;1279;22564;-77
2024/02/02 11:07:56;;;;;;;11.90;4.60;;;;;;;6.99;74.21;99730.80;225509;1274;24234;-78
2024/02/02 11:13:17;;;;;;;11.70;3.30;;;;;;;6.97;74.23;99722.90;225501;1277;22546;-74
2024/02/02 11:18:34;;;;;;;12.10;3.90;;;;;;;6.99;74.39;99722.36;225375;1273;22611;-75
2024/02/02 11:23:59;;;;;;;8.50;3.30;;;;;;;7.06;74.03;99701.80;225491;1258;22558;-73
2024/02/02 11:29:19;;;;;;;12.70;3.40;;;;;;;7.18;73.89;99702.10;225338;1276;22545;-75
2024/02/02 11:34:34;;;;;;;11.80;3.70;;;;;;;7.33;73.88;99690.65;225600;1278;22593;-75
2024/02/02 11:39:53;;;;;;;8.50;3.10;;;;;;;7.39;73.11;99687.58;225778;1279;22556;-76
2024/02/02 11:44:57;;;;;;;9.90;3.40;;;;;;;7.33;72.66;99690.25;225535;1276;22616;-76
2024/02/02 11:50:06;;;;;;;9.90;3.90;;;;;;;7.20;72.25;99675.98;225628;1273;25218;-75
2024/02/02 11:55:20;;;;;;;9.80;3.20;;;;;;;7.09;72.85;99665.81;225360;1274;22554;-75
2024/02/02 12:00:40;;;;;;;10.20;3.10;;;;;;;7.18;73.07;99662.45;225276;1272;22566;-76
2024/02/02 12:05:55;;;;;;;11.10;2.60;;;;;;;7.33;73.03;99654.86;225605;1274;24767;-75
2024/02/02 12:10:59;;;;;;;11.10;2.90;;;;;;;7.47;72.15;99648.64;225412;1277;22677;-76
2024/02/02 12:16:01;;;;;;;10.70;3.10;;;;;;;7.61;72.84;99642.95;225339;1270;22695;-75
2024/02/02 12:21:11;;;;;;;9.20;2.80;;;;;;;7.75;72.30;99635.75;225622;1276;22548;-75
2024/02/02 12:26:15;;;;;;;8.20;2.40;;;;;;;7.82;71.86;99632.95;225519;1272;22554;-75
2024/02/02 12:31:17;;;;;;;7.50;2.60;;;;;;;7.81;71.60;99630.41;225231;1273;22562;-75
2024/02/02 12:36:21;;;;;;;8.70;2.80;;;;;;;7.80;70.62;99623.52;225514;1273;22667;-75
2024/02/02 12:41:23;;;;;;;12.00;3.30;;;;;;;7.80;70.70;99615.80;225210;1274;22559;-74
2024/02/02 12:46:27;;;;;;;11.30;2.90;;;;;;;7.78;70.40;99609.52;225046;1272;22541;-74
2024/02/02 12:51:29;;;;;;;9.70;2.60;;;;;;;7.74;69.80;99602.12;225455;1280;22564;-74
2024/02/02 12:56:30;;;;;;;8.90;2.10;;;;;;;7.74;69.55;99591.23;225417;1267;22702;-74
2024/02/02 13:01:33;;;;;;;7.60;2.30;;;;;;;7.76;69.72;99591.39;225378;1266;22551;-74
2024/02/02 13:06:35;;;;;;;8.30;2.60;;;;;;;7.72;69.70;99576.79;225277;1266;24265;-74
2024/02/02 13:11:43;;;;;;;7.40;2.30;;;;;;;7.70;69.46;99583.82;225186;1280;23016;-75
2024/02/02 13:16:45;;;;;;;7.40;2.40;;;;;;;7.65;69.52;99576.05;225901;1272;22578;-73
2024/02/02 13:21:47;;;;;;;10.20;2.10;;;;;;;7.60;69.38;99570.07;225317;1266;25408;-75
2024/02/02 13:26:51;;;;;;;7.40;2.30;;;;;;;7.50;67.78;99560.60;225380;1272;22567;-74
2024/02/02 13:31:53;;;;;;;6.10;1.90;;;;;;;7.42;68.83;99556.74;225371;1262;22561;-74
2024/02/02 13:36:59;;;;;;;6.70;2.40;;;;;;;7.37;68.94;99543.00;225288;1273;22651;-75
2024/02/02 13:42:02;;;;;;;6.00;2.00;;;;;;;7.30;68.65;99544.09;225100;1272;22552;-73
2024/02/02 13:47:12;;;;;;;6.40;2.40;;;;;;;7.21;68.53;99539.20;225261;1274;22557;-73
2024/02/02 13:52:14;;;;;;;8.40;3.20;;;;;;;7.14;69.01;99533.05;225157;1269;22749;-76
2024/02/02 13:57:16;;;;;;;8.70;3.80;;;;;;;7.01;69.32;99530.10;225209;1274;22649;-75
2024/02/02 14:02:19;;;;;;;12.50;3.70;;;;;;;6.87;69.21;99525.48;225169;1273;23118;-76
2024/02/02 14:07:22;;;;;;;7.20;2.90;;;;;;;6.80;69.78;99517.89;225255;1276;22577;-74
2024/02/02 14:12:24;;;;;;;9.30;2.90;;;;;;;6.73;69.24;99508.77;225362;1275;22553;-75
2024/02/02 14:17:26;;;;;;;9.50;3.10;;;;;;;6.68;69.65;99500.69;225258;1267;22563;-74
2024/02/02 14:22:28;;;;;;;7.60;3.40;;;;;;;6.60;69.57;99500.95;225114;1279;22573;-74
2024/02/02 14:27:34;;;;;;;8.60;3.70;;;;;;;6.52;69.70;99490.35;225233;1273;22954;-75
2024/02/02 14:32:36;;;;;;;8.60;3.40;;;;;;;6.49;69.94;99491.64;225202;1274;22569;-73
2024/02/02 14:37:38;;;;;;;9.90;3.70;;;;;;;6.47;69.63;99482.61;225213;1273;22556;-74
2024/02/02 14:42:41;;;;;;;11.70;4.60;;;;;;;6.42;70.20;99474.80;225204;1266;22552;-76
2024/02/02 14:47:44;;;;;;;9.50;4.80;;;;;;;6.35;69.94;99464.42;225164;1257;22550;-77
2024/02/02 14:52:46;;;;;;;11.20;5.50;;;;;;;6.26;70.55;99466.83;225140;1273;23048;-78
2024/02/02 14:57:48;;;;;;;9.70;5.00;;;;;;;6.17;70.81;99468.27;225255;1257;22557;-76
2024/02/02 15:02:51;;;;;;;14.50;6.60;;;;;;;6.07;71.09;99467.08;225198;1280;22686;-78
2024/02/02 15:07:54;;;;;;;16.80;6.60;;;;;;;6.00;71.72;99461.08;225110;1277;22587;-77
2024/02/02 15:12:56;;;;;;;17.30;7.30;;;;;;;5.94;71.97;99451.84;225121;1276;24781;-77
2024/02/02 15:17:59;;;;;;;15.50;7.70;;;;;;;5.87;72.38;99432.77;225251;1275;25272;-78
2024/02/02 15:23:01;;;;;;;14.20;6.70;;;;;;;5.78;72.26;99426.10;225417;1276;22617;-78
2024/02/02 15:28:04;;;;;;;9.40;5.30;;;;;;;5.64;72.37;99415.45;225353;1280;22612;-76
2024/02/02 15:33:06;;;;;;;19.40;5.10;;;;;;;5.49;72.34;99410.73;225301;1278;25265;-77
2024/02/02 15:38:08;;;;;;;10.80;5.50;;;;;;;5.33;72.15;99403.45;225424;1276;25458;-76
2024/02/02 15:43:12;;;;;;;14.40;4.80;;;;;;;5.16;72.34;99404.14;225496;1279;22558;-78
2024/02/02 15:48:14;;;;;;;10.20;5.00;;;;;;;5.02;72.29;99415.05;225464;1280;22546;-81
2024/02/02 15:53:18;;;;;;;9.20;5.10;;;;;;;4.90;72.21;99420.63;225332;1280;25300;-78
2024/02/02 15:58:20;;;;;;;12.00;5.20;;;;;;;4.79;72.68;99411.27;225468;1280;22576;-77
2024/02/02 16:03:21;;;;;;;13.50;6.10;;;;;;;4.72;73.16;99407.95;225577;1279;22543;-77
2024/02/02 16:08:23;;;;;;;12.80;6.00;;;;;;;4.65;73.20;99400.89;225419;1279;25969;-77
2024/02/02 16:13:25;;;;;;;14.90;6.90;;;;;;;4.59;73.44;99395.83;225578;1273;22666;-77
2024/02/02 16:18:28;;;;;;;13.50;6.90;;;;;;;4.54;73.84;99398.13;225476;1278;22563;-77
2024/02/02 16:23:32;;;;;;;12.30;5.90;;;;;;;4.52;74.34;99397.84;225279;1279;22537;-77
2024/02/02 16:28:34;;;;;;;11.70;5.50;;;;;;;4.50;74.32;99394.48;225459;1280;22569;-78
2024/02/02 16:33:36;;;;;;;15.60;6.60;;;;;;;4.46;74.35;99389.22;225508;1273;22544;-78
2024/02/02 16:38:38;;;;;;;12.40;5.70;;;;;;;4.43;74.71;99389.34;225370;1275;22552;-77
2024/02/02 16:43:40;;;;;;;10.50;6.10;;;;;;;4.39;75.09;99376.80;225549;1276;22555;-77
2024/02/02 16:48:42;;;;;;;12.70;6.00;;;;;;;4.33;74.95;99380.65;225445;1279;22557;-79
2024/02/02 16:53:45;;;;;;;13.60;6.20;;;;;;;4.31;75.38;99372.34;225377;1275;22653;-77
2024/02/02 16:58:47;;;;;;;13.30;5.70;;;;;;;4.29;75.73;99372.98;225293;1280;22560;-77
2024/02/02 17:03:51;;;;;;;12.50;5.70;;;;;;;4.29;75.76;99369.52;225603;1272;22582;-78
2024/02/02 17:08:53;;;;;;;14.50;5.70;;;;;;;4.27;75.69;99358.33;225501;1280;22566;-77
2024/02/02 17:13:55;;;;;;;10.90;5.40;;;;;;;4.27;75.90;99349.98;225488;1279;25365;-78
2024/02/02 17:18:57;;;;;;;13.70;6.00;;;;;;;4.29;75.93;99348.45;225368;1277;22566;-79
2024/02/02 17:23:59;;;;;;;14.40;5.80;;;;;;;4.29;75.82;99342.31;225295;1278;22556;-78
2024/02/02 17:29:01;;;;;;;13.80;6.10;;;;;;;4.29;76.08;99324.74;225562;1278;22553;-78
2024/02/02 17:34:15;;;;;;;14.30;6.90;;;;;;;4.28;76.35;99311.01;225570;1273;22583;-80
2024/02/02 17:39:17;;;;;;;18.30;7.50;;;;;;;4.28;76.28;99302.16;225497;1280;22551;-77
2024/02/02 17:44:19;;;;;;;18.80;8.20;;;;;;;4.28;76.22;99294.79;225568;1277;22562;-77
2024/02/02 17:49:26;;;;;;;21.40;8.90;;;;;;;4.27;76.41;99288.10;225543;1278;22499;-77
2024/02/02 17:54:42;;;;;;;14.60;6.90;;;;;;;4.27;76.54;99279.17;225408;1280;22627;-78
2024/02/02 17:59:44;;;;;;;23.40;9.30;;;;;;;4.25;76.82;99266.09;225482;1278;22550;-78
2024/02/02 18:04:46;;;;;;;21.30;9.10;;;;;;;4.23;76.89;99255.46;225535;1273;22667;-79
2024/02/02 18:09:48;;;;;;;14.10;8.60;;;;;;;4.21;76.84;99247.78;225473;1278;25357;-77
2024/02/02 18:14:50;;;;;;;18.70;8.70;;;;;;;4.19;76.76;99235.27;225554;1277;22554;-78
2024/02/02 18:19:52;;;;;;;17.60;7.80;;;;;;;4.16;76.96;99216.63;225504;1278;22938;-78
2024/02/02 18:24:54;;;;;;;18.30;8.20;;;;;;;4.17;77.30;99226.21;225401;1278;24316;-78
2024/02/02 18:29:56;;;;;;;14.30;7.60;;;;;;;4.18;77.25;99216.47;225543;1275;22975;-78
2024/02/02 18:34:58;;;;;;;15.40;7.50;;;;;;;4.20;77.20;99210.91;225420;1279;22957;-78
2024/02/02 18:40:01;;;;;;;17.40;8.30;;;;;;;4.20;77.24;99209.68;225417;1280;22589;-77
2024/02/02 18:45:04;;;;;;;16.70;7.60;;;;;;;4.22;77.40;99210.95;225332;1280;23361;-79
2024/02/02 18:50:07;;;;;;;17.20;8.30;;;;;;;4.22;77.59;99194.54;225323;1276;22573;-78
2024/02/02 18:55:11;;;;;;;18.10;8.40;;;;;;;4.23;77.42;99164.79;225487;1275;22563;-77
2024/02/02 19:00:14;;;;;;;15.70;7.30;;;;;;;4.23;77.59;99143.84;225584;1273;22576;-78
2024/02/02 19:05:16;;;;;;;17.00;7.50;;;;;;;4.24;77.53;99139.57;225473;1275;25261;-78
2024/02/02 19:10:19;;;;;;;15.90;8.30;;;;;;;4.25;77.55;99131.64;225566;1279;23664;-77
2024/02/02 19:15:22;;;;;;;14.70;7.20;;;;;;;4.25;77.53;99120.85;225466;1279;22951;-79
2024/02/02 19:20:24;;;;;;;17.70;8.20;;;;;;;4.25;77.51;99120.91;225506;1279;22566;-77
2024/02/02 19:25:26;;;;;;;20.10;7.90;;;;;;;4.29;77.68;99121.05;225432;1278;22557;-77
2024/02/02 19:30:28;;;;;;;16.40;7.30;;;;;;;4.32;77.59;99113.13;225546;1277;22608;-79
2024/02/02 19:35:30;;;;;;;18.30;8.00;;;;;;;4.33;77.41;99091.76;225511;1280;22561;-78
2024/02/02 19:40:33;;;;;;;16.50;8.10;;;;;;;4.34;77.53;99080.49;225374;1280;22750;-77
2024/02/02 19:45:36;;;;;;;14.00;7.90;;;;;;;4.34;77.70;99074.39;225343;1280;25373;-78
2024/02/02 19:50:40;;;;;;;13.50;7.20;;;;;;;4.36;77.46;99068.46;225366;1275;22589;-78
2024/02/02 19:55:42;;;;;;;14.00;8.30;;;;;;;4.36;77.77;99067.20;225291;1275;22597;-77
2024/02/02 20:00:44;;;;;;;15.20;8.10;;;;;;;4.37;77.64;99066.04;225432;1280;22546;-78
2024/02/02 20:05:46;;;;;;;17.00;9.20;;;;;;;4.38;77.25;99071.88;225433;1278;22546;-78
2024/02/02 20:10:48;;;;;;;14.70;8.80;;;;;;;4.40;77.69;99071.60;225252;1280;22577;-79
2024/02/02 20:15:50;;;;;;;14.70;8.20;;;;;;;4.42;77.59;99072.42;225392;1278;25398;-78
2024/02/02 20:20:53;;;;;;;15.30;7.80;;;;;;;4.42;77.68;99067.83;225315;1279;22569;-77
2024/02/02 20:25:57;;;;;;;16.30;8.60;;;;;;;4.43;77.82;99061.48;225450;1280;22585;-78
2024/02/02 20:30:59;;;;;;;19.70;9.80;;;;;;;4.44;77.77;99047.42;225377;1280;22630;-77
2024/02/02 20:36:02;;;;;;;18.30;9.60;;;;;;;4.44;77.71;99038.52;225490;1278;25135;-79
2024/02/02 20:41:06;;;;;;;18.00;8.50;;;;;;;4.44;77.57;99039.27;225402;1278;25347;-77
2024/02/02 20:46:12;;;;;;;17.20;9.40;;;;;;;4.44;77.76;99050.04;225343;1277;222635;-79
2024/02/02 20:51:14;;;;;;;16.20;8.50;;;;;;;4.45;78.10;99059.35;225797;1276;23234;-77
2024/02/02 20:56:19;;;;;;;13.30;8.10;;;;;;;4.46;78.14;99063.08;225691;1277;22546;-79
2024/02/02 21:01:21;;;;;;;16.60;7.90;;;;;;;4.49;77.84;99072.39;225409;1276;22549;-78
2024/02/02 21:06:24;;;;;;;12.10;7.10;;;;;;;4.53;78.22;99075.69;225508;1257;22569;-77
2024/02/02 21:11:26;;;;;;;14.40;7.50;;;;;;;4.57;78.08;99087.59;225534;1269;22628;-79
2024/02/02 21:16:28;;;;;;;12.10;7.40;;;;;;;4.59;78.24;99071.33;225537;1276;23050;-77
2024/02/02 21:21:31;;;;;;;13.30;7.70;;;;;;;4.60;78.36;99056.77;225532;1262;22544;-78
2024/02/02 21:26:33;;;;;;;12.50;7.50;;;;;;;4.60;78.42;99048.04;225629;1280;22900;-78
2024/02/02 21:31:39;;;;;;;10.50;5.70;;;;;;;4.62;78.31;99046.98;225394;1279;22556;-79
2024/02/02 21:36:41;;;;;;;14.40;7.60;;;;;;;4.64;78.27;99047.20;225392;1279;23334;-78
2024/02/02 21:41:43;;;;;;;13.70;7.80;;;;;;;4.64;78.37;99043.98;225370;1276;23954;-78
2024/02/02 21:46:45;;;;;;;11.90;7.20;;;;;;;4.68;78.26;99037.35;225431;1277;24230;-78
2024/02/02 21:51:47;;;;;;;13.20;6.80;;;;;;;4.70;78.53;99039.61;225428;1280;22577;-79
2024/02/02 21:56:49;;;;;;;11.90;6.50;;;;;;;4.70;78.16;99041.86;225397;1275;22567;-78
2024/02/02 22:01:51;;;;;;;14.90;6.90;;;;;;;4.70;78.41;99046.58;225340;1279;22570;-78
2024/02/02 22:06:57;;;;;;;12.10;5.90;;;;;;;4.70;78.57;99040.30;225478;1280;22562;-77
2024/02/02 22:11:59;;;;;;;11.70;6.20;;;;;;;4.71;78.72;99042.70;225300;1278;22561;-78
2024/02/02 22:17:01;;;;;;;13.50;6.90;;;;;;;4.70;78.42;99033.46;225526;1278;22544;-77
2024/02/02 22:22:04;;;;;;;12.30;6.40;;;;;;;4.72;78.65;99036.82;225537;1257;22591;-78
2024/02/02 22:27:06;;;;;;;12.10;5.80;;;;;;;4.74;78.56;99033.87;225794;1277;22578;-77
2024/02/02 22:32:09;;;;;;;8.90;5.30;;;;;;;4.74;78.59;99027.89;225495;1278;22569;-77
2024/02/02 22:37:11;;;;;;;12.10;6.50;;;;;;;4.75;78.67;99028.55;225425;1279;25996;-77
2024/02/02 22:42:13;;;;;;;12.10;5.70;;;;;;;4.74;78.57;99027.89;225481;1276;25050;-78
2024/02/02 22:47:15;;;;;;;11.90;6.80;;;;;;;4.75;78.69;99023.47;225386;1280;22559;-78
2024/02/02 22:52:17;;;;;;;12.80;6.00;;;;;;;4.76;78.98;99021.18;225413;1278;24276;-77
2024/02/02 22:57:19;;;;;;;14.20;6.70;;;;;;;4.80;79.03;99014.26;225410;1280;22559;-78
2024/02/02 23:02:21;;;;;;;11.10;6.50;;;;;;;4.82;78.76;99019.24;225407;1278;24262;-78
2024/02/02 23:07:23;;;;;;;12.30;6.30;;;;;;;4.85;78.84;99005.70;225439;1278;23284;-77
2024/02/02 23:12:25;;;;;;;11.40;6.40;;;;;;;4.88;78.55;98997.03;225392;1280;22564;-78
2024/02/02 23:17:27;;;;;;;11.30;6.60;;;;;;;4.91;78.98;98987.46;225349;1279;22564;-78
2024/02/02 23:22:30;;;;;;;11.50;6.30;;;;;;;4.93;78.95;98982.44;225494;1278;22711;-78
2024/02/02 23:27:32;;;;;;;12.40;6.70;;;;;;;4.93;78.84;98975.91;225456;1278;22660;-78
2024/02/02 23:32:37;;;;;;;11.60;5.90;;;;;;;4.93;78.87;98967.36;225504;1277;22560;-77
2024/02/02 23:37:39;;;;;;;11.20;7.00;;;;;;;4.95;78.90;98968.95;225452;1278;22550;-77
2024/02/02 23:42:41;;;;;;;13.40;7.20;;;;;;;4.94;78.69;98966.42;225461;1278;24291;-77
2024/02/02 23:47:43;;;;;;;12.30;7.10;;;;;;;4.92;78.94;98969.96;225372;1257;22591;-78